createdAt,value
2022-09-27T00:00:29.897Z,98950.09
2022-09-27T00:03:00.630Z,98955.34
2022-09-27T00:05:30.840Z,98950.59
2022-09-27T00:08:01.318Z,98951.16
2022-09-27T00:10:31.254Z,98940.31
2022-09-27T00:13:04.128Z,98953.97
2022-09-27T00:15:34.515Z,98935.88
2022-09-27T00:18:05.413Z,98943.72
2022-09-27T00:20:35.505Z,98932.44
2022-09-27T00:23:05.651Z,98937.75
2022-09-27T00:25:36.498Z,98936.28
2022-09-27T00:28:10.275Z,98934.84
2022-09-27T00:30:43.092Z,98931.41
2022-09-27T00:33:16.639Z,98933.03
2022-09-27T00:35:48.448Z,98931.94
2022-09-27T00:38:19.475Z,98923.03
2022-09-27T00:40:49.766Z,98922.53
2022-09-27T00:43:24.300Z,98918.87
2022-09-27T00:45:57.576Z,98910.97
2022-09-27T00:48:31.404Z,98915.28
2022-09-27T00:51:06.178Z,98913.00
2022-09-27T00:53:49.049Z,98910.87
2022-09-27T00:56:24.386Z,98904.63
2022-09-27T00:59:10.555Z,98909.97
2022-09-27T01:01:42.262Z,98901.63
2022-09-27T01:04:17.216Z,98901.13
2022-09-27T01:06:46.708Z,98900.56
2022-09-27T01:09:18.287Z,98900.41
2022-09-27T01:12:02.767Z,98904.19
2022-09-27T01:15:13.622Z,98904.56
2022-09-27T01:17:53.914Z,98901.59
2022-09-27T01:20:52.163Z,98896.44
2022-09-27T01:23:21.723Z,98891.25
2022-09-27T01:26:28.854Z,98888.53
2022-09-27T01:29:28.826Z,98881.84
2022-09-27T01:32:10.589Z,98881.94
2022-09-27T01:34:50.797Z,98874.31
2022-09-27T01:37:46.939Z,98873.81
2022-09-27T01:40:25.996Z,98870.28
2022-09-27T01:43:07.811Z,98863.69
2022-09-27T01:46:10.606Z,98866.59
2022-09-27T01:48:47.323Z,98862.28
2022-09-27T01:51:49.659Z,98848.97
2022-09-27T01:54:26.149Z,98843.84
2022-09-27T01:57:00.741Z,98840.84
2022-09-27T01:59:43.678Z,98838.56
2022-09-27T02:02:13.433Z,98837.94
2022-09-27T02:04:48.759Z,98840.31
2022-09-27T02:07:22.384Z,98824.19
2022-09-27T02:09:59.670Z,98831.38
2022-09-27T02:12:32.634Z,98830.97
2022-09-27T02:15:06.388Z,98829.75
2022-09-27T02:17:42.573Z,98835.72
2022-09-27T02:20:17.935Z,98836.47
2022-09-27T02:23:28.632Z,98838.25
2022-09-27T02:26:20.264Z,98831.97
2022-09-27T02:28:52.854Z,98834.81
2022-09-27T02:31:23.880Z,98838.06
2022-09-27T02:33:56.917Z,98828.72
2022-09-27T02:36:26.088Z,98816.09
2022-09-27T02:38:55.237Z,98818.75
2022-09-27T02:41:24.781Z,98820.81
2022-09-27T02:43:58.368Z,98813.50
2022-09-27T02:46:53.530Z,98813.81
2022-09-27T02:49:40.671Z,98814.19
2022-09-27T02:52:28.837Z,98809.75
2022-09-27T02:55:33.672Z,98818.16
2022-09-27T02:59:01.096Z,98809.09
2022-09-27T03:01:39.704Z,98804.37
2022-09-27T03:04:14.799Z,98802.91
2022-09-27T03:06:46.476Z,98805.22
2022-09-27T03:09:24.013Z,98799.16
2022-09-27T03:11:53.475Z,98803.47
2022-09-27T03:14:21.887Z,98802.16
2022-09-27T03:16:52.677Z,98805.53
2022-09-27T03:19:24.764Z,98797.31
2022-09-27T03:21:58.242Z,98794.69
2022-09-27T03:24:26.893Z,98802.16
2022-09-27T03:26:55.143Z,98792.44
2022-09-27T03:29:23.016Z,98803.84
2022-09-27T03:31:51.909Z,98805.06
2022-09-27T03:34:22.556Z,98804.03
2022-09-27T03:36:52.877Z,98789.91
2022-09-27T03:39:21.418Z,98788.31
2022-09-27T03:41:50.257Z,98792.88
2022-09-27T03:44:19.589Z,98795.41
2022-09-27T03:46:48.180Z,98791.28
2022-09-27T03:49:16.204Z,98790.00
2022-09-27T03:51:44.692Z,98787.38
2022-09-27T03:54:14.400Z,98778.97
2022-09-27T03:56:42.975Z,98780.25
2022-09-27T03:59:12.877Z,98785.84
2022-09-27T04:01:46.691Z,98790.09
2022-09-27T04:04:17.795Z,98792.78
2022-09-27T04:06:46.485Z,98789.34
2022-09-27T04:09:16.281Z,98786.63
2022-09-27T04:11:46.218Z,98788.00
2022-09-27T04:14:16.982Z,98790.56
2022-09-27T04:16:47.830Z,98797.28
2022-09-27T04:19:17.063Z,98777.38
2022-09-27T04:21:45.670Z,98785.59
2022-09-27T04:24:14.415Z,98787.00
2022-09-27T04:26:44.216Z,98786.69
2022-09-27T04:29:12.913Z,98769.31
2022-09-27T04:31:44.307Z,98774.81
2022-09-27T04:34:16.480Z,98759.13
2022-09-27T04:36:46.491Z,98763.50
2022-09-27T04:39:16.858Z,98764.34
2022-09-27T04:41:47.403Z,98758.84
2022-09-27T04:44:17.283Z,98772.78
2022-09-27T04:46:46.382Z,98765.19
2022-09-27T04:49:17.682Z,98749.22
2022-09-27T04:51:48.876Z,98760.16
2022-09-27T04:54:18.408Z,98762.94
2022-09-27T04:57:12.345Z,98764.75
2022-09-27T05:00:04.387Z,98757.44
2022-09-27T05:03:04.092Z,98750.25
2022-09-27T05:06:13.462Z,98749.66
2022-09-27T05:31:25.318Z,98719.00
2022-09-27T05:34:01.533Z,98717.16
2022-09-27T05:36:33.373Z,98718.53
2022-09-27T05:39:05.232Z,98713.78
2022-09-27T05:41:33.740Z,98703.75
2022-09-27T05:44:08.638Z,98701.91
2022-09-27T05:46:55.072Z,98703.72
2022-09-27T05:49:25.848Z,98700.13
2022-09-27T05:51:54.598Z,98707.59
2022-09-27T05:54:25.997Z,98709.88
2022-09-27T05:57:00.660Z,98718.41
2022-09-27T05:59:31.132Z,98711.16
2022-09-27T06:02:00.434Z,98710.72
2022-09-27T06:04:34.959Z,98713.09
2022-09-27T06:07:04.581Z,98706.06
2022-09-27T06:09:33.745Z,98711.00
2022-09-27T06:12:02.963Z,98711.94
2022-09-27T06:14:35.743Z,98706.41
2022-09-27T06:17:07.730Z,98710.47
2022-09-27T06:19:37.486Z,98712.47
2022-09-27T06:22:05.638Z,98710.38
2022-09-27T06:24:37.546Z,98709.75
2022-09-27T06:27:08.199Z,98715.13
2022-09-27T06:29:37.684Z,98718.72
2022-09-27T06:32:11.651Z,98713.53
2022-09-27T06:34:41.879Z,98713.22
2022-09-27T06:37:09.862Z,98714.09
2022-09-27T06:39:38.412Z,98709.09
2022-09-27T06:42:08.501Z,98709.84
2022-09-27T06:44:50.777Z,98700.69
2022-09-27T06:47:21.871Z,98687.38
2022-09-27T06:49:51.774Z,98694.59
2022-09-27T06:52:27.814Z,98698.37
2022-09-27T06:54:57.178Z,98699.63
2022-09-27T06:57:55.330Z,98713.75
2022-09-27T07:00:27.049Z,98721.41
2022-09-27T07:03:03.845Z,98725.50
2022-09-27T07:05:32.312Z,98724.03
2022-09-27T07:08:06.574Z,98726.59
2022-09-27T07:10:37.801Z,98726.00
2022-09-27T07:13:11.512Z,98721.72
2022-09-27T07:15:41.650Z,98715.97
2022-09-27T07:18:14.072Z,98718.66
2022-09-27T07:20:41.974Z,98718.94
2022-09-27T07:23:11.215Z,98720.66
2022-09-27T07:25:40.468Z,98727.97
2022-09-27T07:28:12.419Z,98720.34
2022-09-27T07:30:44.077Z,98714.19
2022-09-27T07:33:12.946Z,98709.56
2022-09-27T07:35:43.186Z,98713.56
2022-09-27T07:38:14.249Z,98712.91
2022-09-27T07:40:43.054Z,98718.31
2022-09-27T07:43:12.464Z,98704.75
2022-09-27T07:45:40.886Z,98702.06
2022-09-27T07:48:14.389Z,98698.13
2022-09-27T07:50:45.193Z,98696.00
2022-09-27T07:53:14.134Z,98702.97
2022-09-27T07:55:53.457Z,98715.66
2022-09-27T07:58:44.237Z,98709.72
2022-09-27T08:01:13.698Z,98706.25
2022-09-27T08:03:45.686Z,98707.81
2022-09-27T08:06:16.838Z,98706.47
2022-09-27T08:08:47.844Z,98700.22
2022-09-27T08:11:21.615Z,98702.78
2022-09-27T08:13:52.751Z,98702.66
2022-09-27T08:16:22.305Z,98707.06
2022-09-27T08:18:53.517Z,98711.41
2022-09-27T08:21:23.984Z,98713.75
2022-09-27T08:23:54.417Z,98721.31
2022-09-27T08:26:23.558Z,98718.28
2022-09-27T08:28:52.740Z,98720.22
2022-09-27T08:31:22.741Z,98710.66
2022-09-27T08:33:53.561Z,98705.50
2022-09-27T08:36:44.282Z,98696.69
2022-09-27T08:39:33.942Z,98705.63
2022-09-27T08:42:26.085Z,98695.56
2022-09-27T08:45:18.041Z,98708.78
2022-09-27T08:47:55.442Z,98707.59
2022-09-27T08:50:39.835Z,98705.44
2022-09-27T08:53:18.668Z,98702.06
2022-09-27T08:55:52.081Z,98700.75
2022-09-27T08:58:30.585Z,98700.19
2022-09-27T09:01:18.844Z,98691.91
2022-09-27T09:03:50.960Z,98697.53
2022-09-27T09:06:47.331Z,98693.41
2022-09-27T09:09:52.142Z,98688.66
2022-09-27T09:12:50.246Z,98686.59
2022-09-27T09:15:56.242Z,98687.47
2022-09-27T09:18:46.997Z,98674.44
2022-09-27T09:21:34.850Z,98663.66
2022-09-27T09:24:21.958Z,98670.13
2022-09-27T09:27:00.095Z,98662.56
2022-09-27T09:29:46.528Z,98667.84
2022-09-27T09:32:40.900Z,98667.78
2022-09-27T09:35:19.773Z,98663.16
2022-09-27T09:37:54.656Z,98667.78
2022-09-27T09:41:05.486Z,98655.66
2022-09-27T09:43:58.127Z,98658.94
2022-09-27T09:46:43.552Z,98660.63
2022-09-27T09:49:30.127Z,98660.16
2022-09-27T09:52:12.488Z,98646.19
2022-09-27T09:54:47.315Z,98643.66
2022-09-27T09:57:23.773Z,98643.31
2022-09-27T09:59:58.594Z,98644.97
2022-09-27T10:02:31.637Z,98634.88
2022-09-27T10:05:07.839Z,98649.19
2022-09-27T10:07:40.033Z,98647.16
2022-09-27T10:10:11.401Z,98642.91
2022-09-27T10:12:43.974Z,98642.44
2022-09-27T10:15:25.307Z,98631.19
2022-09-27T10:17:56.507Z,98625.00
2022-09-27T10:20:45.369Z,98627.03
2022-09-27T10:23:21.664Z,98619.72
2022-09-27T10:25:55.806Z,98618.16
2022-09-27T10:28:46.369Z,98612.16
2022-09-27T10:31:18.326Z,98614.69
2022-09-27T10:34:01.118Z,98608.81
2022-09-27T10:36:37.049Z,98609.31
2022-09-27T10:39:07.146Z,98606.69
2022-09-27T10:41:41.774Z,98609.44
2022-09-27T10:44:18.623Z,98600.44
2022-09-27T10:46:51.336Z,98607.13
2022-09-27T10:49:28.717Z,98596.72
2022-09-27T10:52:37.779Z,98608.59
2022-09-27T10:55:26.433Z,98602.00
2022-09-27T10:58:00.119Z,98595.16
2022-09-27T11:00:36.605Z,98585.03
2022-09-27T11:03:59.474Z,98585.09
2022-09-27T11:06:53.617Z,98581.84
2022-09-27T11:09:52.926Z,98574.38
2022-09-27T11:12:45.905Z,98563.28
2022-09-27T12:07:11.689Z,98503.47
2022-09-27T12:10:13.551Z,98500.88
2022-09-27T13:29:00.265Z,98428.16
2022-09-27T13:32:00.150Z,98434.72
2022-09-27T13:34:56.811Z,98430.75
2022-09-27T13:37:36.959Z,98426.62
2022-09-27T13:40:30.828Z,98430.28
2022-09-27T13:43:50.946Z,98430.44
2022-09-27T13:46:26.288Z,98425.16
2022-09-27T13:49:16.695Z,98417.66
2022-09-27T13:52:02.234Z,98414.31
2022-09-27T13:54:35.086Z,98408.53
2022-09-27T13:57:47.245Z,98427.94
2022-09-27T14:00:44.408Z,98468.69
2022-09-27T15:32:29.699Z,98529.66
2022-09-27T15:35:38.583Z,98527.41
2022-09-27T15:38:38.340Z,98522.75
2022-09-27T15:41:25.419Z,98546.00
2022-09-27T15:44:40.117Z,98540.22
2022-09-27T15:57:06.479Z,98557.84
2022-09-27T15:59:51.304Z,98559.16
2022-09-27T16:02:38.086Z,98562.72
2022-09-27T16:05:39.857Z,98560.19
2022-09-27T16:21:54.087Z,98570.06
2022-09-27T16:25:09.025Z,98572.91
2022-09-27T16:27:52.714Z,98573.19
2022-09-27T16:31:05.323Z,98564.66
2022-09-27T16:34:00.511Z,98568.03
2022-09-27T16:36:45.119Z,98579.56
2022-09-27T16:39:53.312Z,98589.34
2022-09-27T16:42:36.582Z,98584.88
2022-09-27T16:45:44.850Z,98599.78
2022-09-27T16:48:32.460Z,98596.28
2022-09-27T16:51:53.805Z,98601.75
2022-09-27T16:54:41.590Z,98606.22
2022-09-27T17:13:07.387Z,98631.06
2022-09-27T17:25:41.930Z,98645.22
2022-09-27T17:28:26.719Z,98636.41
2022-09-27T17:31:29.366Z,98633.03
2022-09-27T17:34:17.333Z,98633.59
2022-09-27T17:37:25.349Z,98627.19
2022-09-27T17:40:16.574Z,98627.78
2022-09-27T17:43:24.636Z,98636.63
2022-09-27T17:46:13.892Z,98633.00
2022-09-27T17:49:15.378Z,98639.84
2022-09-27T18:32:33.689Z,98685.50
2022-09-27T18:35:32.040Z,98696.72
2022-09-27T18:38:19.964Z,98685.22
2022-09-27T18:41:28.295Z,98680.84
2022-09-27T18:44:18.211Z,98673.75
2022-09-27T19:05:49.087Z,98722.06
2022-09-27T19:08:32.017Z,98718.69
2022-09-27T19:11:18.651Z,98719.66
2022-09-27T19:23:34.721Z,98741.38
2022-09-27T19:26:58.186Z,98742.94
2022-09-27T19:29:43.699Z,98745.25
2022-09-27T19:32:32.954Z,98747.56
2022-09-27T19:35:16.343Z,98737.63
2022-09-27T19:58:57.421Z,98734.38
2022-09-27T20:01:59.968Z,98735.94
2022-09-27T20:04:55.824Z,98733.28
2022-09-27T20:07:59.169Z,98738.53
2022-09-27T20:10:56.706Z,98746.44
2022-09-27T20:17:02.954Z,98751.22
2022-09-27T20:19:50.814Z,98760.88
2022-09-27T20:22:37.825Z,98759.53
2022-09-27T20:47:13.575Z,98755.56
2022-09-27T20:49:59.191Z,98761.44
2022-09-27T20:52:52.912Z,98749.66
2022-09-27T20:55:56.393Z,98748.59
2022-09-27T20:58:42.370Z,98743.94
2022-09-27T21:01:54.649Z,98747.94
2022-09-27T21:04:48.943Z,98753.66
2022-09-27T21:08:00.238Z,98748.50
2022-09-27T21:56:53.395Z,98774.41
2022-09-27T22:00:06.833Z,98768.09
2022-09-27T22:02:59.344Z,98769.78
2022-09-27T22:12:08.457Z,98790.31
2022-09-27T22:14:58.067Z,98786.03
2022-09-27T22:17:45.652Z,98775.59
2022-09-27T22:20:38.246Z,98776.97
2022-09-27T22:23:28.118Z,98768.31
2022-09-27T22:26:28.618Z,98765.91
2022-09-27T23:17:12.413Z,98831.31
2022-09-27T23:19:56.629Z,98822.94
2022-09-27T23:22:41.655Z,98815.59
2022-09-27T23:25:33.966Z,98818.19
2022-09-27T23:28:43.100Z,98810.75
2022-09-27T23:31:48.016Z,98820.69
2022-09-27T23:34:34.565Z,98814.59
2022-09-27T23:37:55.726Z,98814.69
2022-09-27T23:40:46.892Z,98819.34
2022-09-27T23:43:33.708Z,98819.56
2022-09-27T23:46:21.510Z,98813.28
2022-09-27T23:49:17.573Z,98828.47
2022-09-27T23:52:07.091Z,98823.12
2022-09-27T23:54:58.526Z,98821.78
2022-09-27T23:57:48.735Z,98827.31
